Time;durP1;ratioP1;P1;durP2;ratioP2;P2;SDS_P1;SDS_P2;PMS_P1;PMS_P2;Temp;Humidity;BMP_temperature;BMP_pressure;BME280_temperature;BME280_humidity;BME280_pressure;Samples;Min_cycle;Max_cycle;Signal;HPM_P1;HPM_P2
2022/02/06 03:47:18;;;;;;;21.33;5.15;;;2.50;86.10;;;;;;4922032;24;20076;-82
2022/02/06 03:52:13;;;;;;;8.07;3.22;;;2.50;86.10;;;;;;4743113;30;20319;-82
2022/02/06 03:54:40;;;;;;;8.63;3.40;;;2.40;86.10;;;;;;4730801;30;20040;-82
2022/02/06 03:57:06;;;;;;;8.15;3.55;;;2.40;86.30;;;;;;4730758;30;20324;-82
2022/02/06 03:59:34;;;;;;;6.28;3.08;;;2.40;86.40;;;;;;4731096;30;20036;-82
2022/02/06 04:02:00;;;;;;;9.25;3.70;;;2.40;86.50;;;;;;4745969;30;20040;-82
2022/02/06 04:04:27;;;;;;;7.63;3.28;;;2.40;86.70;;;;;;4731385;30;20140;-82
2022/02/06 04:06:53;;;;;;;10.52;3.42;;;2.40;86.90;;;;;;4731210;30;20051;-82
2022/02/06 04:09:30;;;;;;;7.45;3.30;;;2.40;87.00;;;;;;4745630;30;20051;-82
2022/02/06 04:11:57;;;;;;;6.05;2.58;;;2.40;87.30;;;;;;4732815;30;20040;-81
2022/02/06 04:14:29;;;;;;;11.45;3.85;;;2.50;87.20;;;;;;4730962;30;20056;-83
2022/02/06 04:16:59;;;;;;;9.25;3.25;;;2.50;86.80;;;;;;4731458;30;20227;-83
2022/02/06 04:19:26;;;;;;;6.50;2.90;;;2.50;87.00;;;;;;4761360;30;20028;-82
2022/02/06 04:21:56;;;;;;;8.13;3.00;;;2.60;87.30;;;;;;4745592;30;20140;-83
2022/02/06 04:24:24;;;;;;;6.68;3.17;;;2.70;87.00;;;;;;4760215;30;20059;-83
2022/02/06 04:26:52;;;;;;;6.53;3.13;;;2.80;86.60;;;;;;4744306;30;20051;-83
2022/02/06 04:29:18;;;;;;;6.47;2.97;;;2.90;86.00;;;;;;4728576;30;20049;-83
2022/02/06 04:31:47;;;;;;;9.52;3.75;;;3.00;85.50;;;;;;4766464;30;20350;-83
2022/02/06 04:34:20;;;;;;;9.23;3.25;;;3.00;85.10;;;;;;4745969;30;20040;-83
2022/02/06 04:37:04;;;;;;;7.90;2.90;;;3.00;85.10;;;;;;4760142;30;20123;-83
2022/02/06 05:25:51;;;;;;;9.38;2.97;;;4.30;81.40;;;;;;4686281;30;20049;-81
2022/02/06 05:31:03;;;;;;;5.70;2.60;;;4.70;79.70;;;;;;4680121;30;20069;-82
2022/02/06 05:33:30;;;;;;;11.63;3.60;;;4.80;79.20;;;;;;4681086;30;20207;-82
2022/02/06 05:35:56;;;;;;;10.00;3.72;;;4.90;78.60;;;;;;4687053;30;20043;-82
2022/02/06 05:38:21;;;;;;;9.45;3.63;;;5.00;78.00;;;;;;4680936;30;20146;-82
2022/02/06 05:40:48;;;;;;;10.95;3.80;;;5.20;77.70;;;;;;4688782;30;20042;-82
2022/02/06 05:43:14;;;;;;;11.00;2.97;;;5.20;76.80;;;;;;4680650;30;20073;-82
2022/02/06 05:45:40;;;;;;;14.23;3.43;;;5.30;76.40;;;;;;4688839;30;20042;-82
2022/02/06 05:48:06;;;;;;;7.60;2.50;;;5.40;76.20;;;;;;4666540;30;20046;-82
2022/02/06 05:50:32;;;;;;;7.85;2.72;;;5.50;75.50;;;;;;4681622;30;20271;-83
2022/02/06 05:52:58;;;;;;;7.18;2.67;;;5.60;75.80;;;;;;4686203;30;20391;-82
2022/02/06 05:55:24;;;;;;;6.10;3.00;;;5.60;75.70;;;;;;4677653;30;20038;-82
2022/02/06 05:57:50;;;;;;;7.00;2.47;;;5.60;75.30;;;;;;4728083;30;20063;-82
2022/02/06 06:00:16;;;;;;;4.78;1.95;;;5.60;75.00;;;;;;4729842;30;20040;-83
2022/02/06 06:02:42;;;;;;;7.03;2.00;;;5.70;74.80;;;;;;4730007;30;20229;-82
2022/02/06 06:05:08;;;;;;;8.25;2.63;;;5.70;74.50;;;;;;4729926;30;20332;-83
2022/02/06 06:07:34;;;;;;;12.27;3.87;;;5.70;74.40;;;;;;4730063;30;20094;-82
2022/02/06 06:10:00;;;;;;;9.18;2.75;;;5.60;74.80;;;;;;4715537;30;20319;-82
2022/02/06 06:12:26;;;;;;;6.95;3.40;;;5.40;73.70;;;;;;4715357;30;20233;-82
2022/02/06 06:14:52;;;;;;;9.75;3.33;;;5.10;74.50;;;;;;4715404;30;20037;-82
2022/02/06 06:17:18;;;;;;;6.32;2.95;;;5.00;74.60;;;;;;4715193;30;20119;-82
2022/02/06 06:19:47;;;;;;;14.85;4.22;;;4.80;74.70;;;;;;4714846;30;20043;-82
2022/02/06 06:22:14;;;;;;;9.00;3.53;;;4.70;75.60;;;;;;4730302;30;20045;-82
2022/02/06 06:24:43;;;;;;;7.18;2.88;;;4.60;76.00;;;;;;4715501;30;20120;-82
2022/02/06 06:27:10;;;;;;;14.23;3.67;;;4.50;76.30;;;;;;4730599;30;20161;-82
2022/02/06 06:29:35;;;;;;;7.43;3.05;;;4.40;76.40;;;;;;4746020;30;20393;-82
2022/02/06 06:32:01;;;;;;;10.15;3.75;;;4.40;76.60;;;;;;4742151;30;20044;-81
2022/02/06 06:34:27;;;;;;;5.80;2.47;;;4.40;77.00;;;;;;4740778;30;20124;-81
2022/02/06 06:36:53;;;;;;;9.60;3.72;;;4.30;77.90;;;;;;4751963;30;20456;-82
2022/02/06 06:39:33;;;;;;;6.68;3.17;;;4.40;77.70;;;;;;4739654;30;20024;-82
2022/02/06 06:41:59;;;;;;;6.60;2.45;;;4.50;77.60;;;;;;4741546;30;20040;-82
2022/02/06 06:44:25;;;;;;;9.63;2.30;;;4.50;78.50;;;;;;4740161;30;20117;-82
2022/02/06 06:46:50;;;;;;;11.20;2.72;;;4.70;78.30;;;;;;4738969;30;20082;-82
2022/02/06 06:49:16;;;;;;;6.85;2.10;;;4.80;78.00;;;;;;4754919;30;20064;-82
2022/02/06 06:51:42;;;;;;;9.80;1.60;;;4.90;78.40;;;;;;4720437;30;20048;-84
2022/02/06 06:54:14;;;;;;;6.10;1.83;;;5.00;77.10;;;;;;4714755;30;20213;-83
2022/02/06 06:56:52;;;;;;;6.00;1.85;;;5.20;76.90;;;;;;4743889;30;20043;-83
2022/02/06 07:04:50;;;;;;;4.45;1.50;;;5.60;74.50;;;;;;4713718;30;20072;-81
2022/02/06 07:07:17;;;;;;;8.75;1.85;;;5.80;74.30;;;;;;4706112;30;20045;-82
2022/02/06 07:09:43;;;;;;;5.80;1.70;;;5.90;73.90;;;;;;4715842;30;20029;-81
2022/02/06 07:12:12;;;;;;;4.70;1.40;;;5.90;73.80;;;;;;4717582;30;20040;-81
2022/02/06 07:14:46;;;;;;;4.57;1.88;;;6.10;73.10;;;;;;4697907;30;20056;-83
2022/02/06 07:17:12;;;;;;;4.25;1.30;;;6.10;72.90;;;;;;4719632;30;20113;-82
2022/02/06 07:19:39;;;;;;;4.70;1.90;;;6.20;71.90;;;;;;4701761;30;20094;-83
2022/02/06 07:22:05;;;;;;;4.85;1.85;;;6.40;71.00;;;;;;4687903;30;20038;-82
2022/02/06 07:24:33;;;;;;;7.53;1.73;;;6.50;70.80;;;;;;4688000;30;20368;-81
2022/02/06 07:27:02;;;;;;;4.20;1.60;;;6.60;71.30;;;;;;4706455;30;20283;-82
2022/02/06 07:29:28;;;;;;;6.35;1.80;;;6.70;70.90;;;;;;4718333;30;20041;-81
2022/02/06 07:31:57;;;;;;;8.27;2.17;;;6.70;70.50;;;;;;4715563;30;20071;-83
2022/02/06 07:34:23;;;;;;;5.13;1.95;;;6.80;70.60;;;;;;4685273;30;20048;-81
2022/02/06 07:36:48;;;;;;;6.30;1.88;;;6.90;70.00;;;;;;4678427;30;20165;-82
2022/02/06 07:39:14;;;;;;;9.98;1.95;;;6.90;69.10;;;;;;4733971;30;20036;-84
2022/02/06 07:41:40;;;;;;;8.68;3.85;;;7.00;69.80;;;;;;4724577;30;20045;-81
2022/02/06 07:44:06;;;;;;;6.38;2.60;;;7.10;69.90;;;;;;4725852;30;20288;-81
2022/02/06 07:46:42;;;;;;;12.15;3.78;;;7.10;69.40;;;;;;4720968;30;20120;-83
2022/02/06 07:49:08;;;;;;;8.90;3.73;;;7.00;69.30;;;;;;4722064;30;20118;-83
2022/02/06 07:51:35;;;;;;;7.97;3.50;;;6.90;69.80;;;;;;4725837;30;20037;-83
2022/02/06 07:54:04;;;;;;;9.25;4.07;;;6.80;70.20;;;;;;4725172;30;20410;-81
2022/02/06 07:56:30;;;;;;;8.32;4.10;;;6.80;70.40;;;;;;4734488;30;20330;-83
2022/02/06 07:58:55;;;;;;;9.55;4.30;;;6.70;70.70;;;;;;4739966;30;20061;-81
2022/02/06 08:01:21;;;;;;;8.10;3.15;;;6.60;70.70;;;;;;4717203;30;20248;-83
2022/02/06 08:03:47;;;;;;;5.38;1.92;;;6.60;70.50;;;;;;4712061;30;20060;-81
2022/02/06 08:06:14;;;;;;;5.15;2.03;;;6.70;68.90;;;;;;4730799;30;20345;-81
2022/02/06 08:08:40;;;;;;;2.97;1.50;;;6.90;68.90;;;;;;4722446;30;20562;-83
2022/02/06 08:11:11;;;;;;;5.55;1.67;;;7.10;68.00;;;;;;4720319;30;20064;-81
2022/02/06 08:13:40;;;;;;;11.35;2.45;;;7.30;67.90;;;;;;4706202;30;20590;-83
2022/02/06 08:16:07;;;;;;;4.07;1.50;;;7.40;66.10;;;;;;4711770;30;20108;-83
2022/02/06 08:18:36;;;;;;;4.65;1.80;;;7.60;65.90;;;;;;4710041;30;20032;-83
2022/02/06 08:21:09;;;;;;;6.25;1.40;;;7.70;65.70;;;;;;4712661;30;20460;-83
2022/02/06 08:23:36;;;;;;;9.43;2.22;;;7.80;65.00;;;;;;4711504;30;20333;-83
2022/02/06 08:26:03;;;;;;;7.65;1.52;;;7.90;65.50;;;;;;4736351;30;20333;-83
2022/02/06 08:28:29;;;;;;;;;;;8.00;64.80;;;;;;4710282;30;20033;-81
2022/02/06 08:30:55;;;;;;;3.53;1.43;;;8.10;64.40;;;;;;4715946;30;19925;-82
2022/02/06 08:33:21;;;;;;;5.80;1.38;;;8.20;64.50;;;;;;4735462;30;20056;-81
2022/02/06 08:35:47;;;;;;;8.73;1.50;;;8.20;63.20;;;;;;4721459;30;20210;-81
2022/02/06 08:38:13;;;;;;;8.38;1.52;;;8.30;63.10;;;;;;4723208;30;20293;-82
2022/02/06 08:40:39;;;;;;;6.75;1.63;;;8.30;63.00;;;;;;4721504;30;20032;-81
2022/02/06 08:43:06;;;;;;;3.43;1.03;;;8.40;62.80;;;;;;4738572;30;20047;-81
2022/02/06 08:45:33;;;;;;;4.97;1.38;;;8.40;62.70;;;;;;4739666;30;20475;-81
2022/02/06 08:47:59;;;;;;;6.38;1.30;;;8.40;62.40;;;;;;4740946;30;20044;-82
2022/02/06 08:50:25;;;;;;;4.43;1.15;;;8.40;62.20;;;;;;4730174;30;20041;-82
2022/02/06 08:52:53;;;;;;;5.47;2.35;;;8.50;62.00;;;;;;4739153;30;20051;-82
2022/02/06 08:55:19;;;;;;;6.57;1.60;;;8.60;62.50;;;;;;4724403;30;20043;-82
2022/02/06 08:57:47;;;;;;;5.85;1.70;;;8.60;61.90;;;;;;4741370;30;20108;-82
2022/02/06 09:00:18;;;;;;;7.18;1.63;;;8.60;61.10;;;;;;4743792;30;20241;-82
2022/02/06 09:02:45;;;;;;;5.85;1.70;;;8.60;61.10;;;;;;4740044;30;20044;-81
2022/02/06 09:05:13;;;;;;;5.80;2.03;;;8.60;60.50;;;;;;4725957;30;20048;-82
2022/02/06 09:07:43;;;;;;;5.28;1.92;;;8.70;60.50;;;;;;4727091;30;20050;-81
2022/02/06 09:10:13;;;;;;;7.72;1.30;;;8.70;60.80;;;;;;4715027;30;20075;-83
2022/02/06 09:12:43;;;;;;;10.23;1.60;;;8.70;59.50;;;;;;4730162;30;20355;-83
2022/02/06 09:15:10;;;;;;;6.18;1.48;;;8.60;59.20;;;;;;4744892;30;20021;-82
2022/02/06 09:17:36;;;;;;;2.83;1.13;;;8.70;59.30;;;;;;4729733;30;20056;-82
2022/02/06 09:20:03;;;;;;;5.93;1.30;;;8.80;58.80;;;;;;4715403;30;20074;-83
2022/02/06 09:22:28;;;;;;;3.17;1.30;;;8.90;58.50;;;;;;4729908;30;20036;-83
2022/02/06 09:24:54;;;;;;;5.03;1.70;;;9.10;58.50;;;;;;4728516;30;20162;-83
2022/02/06 09:27:20;;;;;;;5.43;1.52;;;9.20;58.00;;;;;;4734394;30;20288;-83
2022/02/06 09:29:46;;;;;;;6.57;1.17;;;9.20;57.80;;;;;;4734548;30;20028;-83
2022/02/06 09:37:06;;;;;;;5.55;1.25;;;9.50;57.10;;;;;;4738613;30;20233;-83
2022/02/06 09:39:37;;;;;;;3.70;1.13;;;9.50;56.10;;;;;;4724038;30;20068;-83
2022/02/06 09:42:04;;;;;;;2.60;1.42;;;9.60;56.10;;;;;;4729088;30;20028;-83
2022/02/06 09:44:30;;;;;;;6.05;2.03;;;9.80;55.40;;;;;;4736911;30;20243;-83
2022/02/06 09:46:58;;;;;;;8.43;2.58;;;10.00;55.90;;;;;;4742117;30;20318;-83
2022/02/06 09:49:26;;;;;;;4.47;1.35;;;10.20;54.80;;;;;;4742327;30;20037;-82
2022/02/06 09:51:52;;;;;;;5.03;1.33;;;10.30;53.70;;;;;;4717781;30;20036;-82
2022/02/06 09:54:20;;;;;;;6.65;1.90;;;10.30;53.50;;;;;;4725695;30;20384;-82
2022/02/06 09:56:50;;;;;;;5.50;1.40;;;10.30;53.50;;;;;;4705494;30;20044;-83
2022/02/06 09:59:21;;;;;;;1.90;0.93;;;10.30;53.80;;;;;;4728712;30;20108;-81
2022/02/06 10:01:55;;;;;;;5.35;1.80;;;10.40;52.90;;;;;;4743022;30;20248;-80
2022/02/06 10:04:23;;;;;;;2.80;0.98;;;10.50;52.80;;;;;;4742927;30;20123;-82
2022/02/06 10:06:59;;;;;;;4.45;1.30;;;10.50;51.80;;;;;;4741633;30;20047;-82
2022/02/06 10:09:43;;;;;;;2.65;1.27;;;10.60;53.10;;;;;;4729285;30;20032;-83
2022/02/06 10:12:12;;;;;;;4.72;1.40;;;10.70;52.80;;;;;;4723869;30;20367;-81
2022/02/06 10:14:39;;;;;;;8.18;1.17;;;10.90;51.70;;;;;;4728845;30;20056;-81
2022/02/06 10:17:05;;;;;;;6.13;1.17;;;11.00;51.30;;;;;;4726960;30;20032;-84
2022/02/06 10:19:32;;;;;;;4.07;1.38;;;11.00;49.30;;;;;;4743428;30;20052;-82
2022/02/06 10:21:59;;;;;;;2.47;1.05;;;11.10;49.50;;;;;;4726668;30;20028;-84
2022/02/06 10:24:32;;;;;;;2.90;1.00;;;11.20;49.40;;;;;;4742769;30;20036;-81
2022/02/06 10:27:22;;;;;;;5.93;1.45;;;11.30;48.60;;;;;;4734560;30;20041;-85
2022/02/06 10:30:19;;;;;;;3.20;0.70;;;11.30;47.90;;;;;;4720324;30;20050;-83
2022/02/06 10:32:46;;;;;;;2.17;1.13;;;11.30;47.80;;;;;;4745775;30;20068;-82
2022/02/06 10:35:12;;;;;;;;;;;11.20;47.30;;;;;;4710346;30;20115;-84
2022/02/06 10:37:37;;;;;;;6.60;1.30;;;11.20;47.50;;;;;;4731776;30;19922;-83
2022/02/06 10:40:07;;;;;;;3.25;1.00;;;11.10;48.00;;;;;;4737750;30;20029;-83
2022/02/06 10:42:41;;;;;;;5.05;1.20;;;11.10;47.20;;;;;;4723644;30;20048;-84
2022/02/06 10:45:13;;;;;;;5.07;1.33;;;11.10;48.00;;;;;;4738318;30;20383;-83
2022/02/06 10:47:40;;;;;;;4.38;1.23;;;11.10;47.80;;;;;;4748675;30;20049;-83
2022/02/06 10:50:12;;;;;;;1.98;0.85;;;11.10;47.60;;;;;;4736221;30;20037;-83
2022/02/06 10:52:39;;;;;;;2.75;1.40;;;11.10;47.00;;;;;;4738509;30;20100;-83
2022/02/06 10:55:06;;;;;;;3.25;1.10;;;11.20;46.80;;;;;;4727269;30;20033;-83
2022/02/06 10:57:32;;;;;;;;;;;11.20;47.00;;;;;;4724242;30;20103;-83
2022/02/06 11:00:00;;;;;;;3.93;0.90;;;11.20;46.10;;;;;;4737433;30;20240;-84
2022/02/06 11:02:30;;;;;;;4.60;1.48;;;11.20;45.70;;;;;;4725514;30;20029;-83
2022/02/06 11:05:17;;;;;;;5.00;0.95;;;11.40;46.20;;;;;;4723573;30;20104;-83
2022/02/06 11:08:01;;;;;;;;;;;11.50;44.40;;;;;;4725961;30;20407;-85
2022/02/06 11:10:35;;;;;;;5.30;0.88;;;11.50;42.50;;;;;;4738748;30;19961;-82
2022/02/06 11:13:04;;;;;;;3.33;0.93;;;11.60;43.00;;;;;;4738747;30;20081;-82
2022/02/06 11:15:39;;;;;;;5.00;0.90;;;11.60;44.20;;;;;;4733886;30;20087;-83
2022/02/06 11:18:18;;;;;;;4.78;1.17;;;11.50;43.10;;;;;;4739194;30;20463;-85
2022/02/06 11:21:01;;;;;;;1.63;1.17;;;11.70;42.70;;;;;;4741542;30;20045;-85
2022/02/06 11:23:39;;;;;;;2.60;1.30;;;11.80;42.60;;;;;;4738645;30;20041;-84
2022/02/06 11:26:12;;;;;;;3.90;0.90;;;12.00;41.90;;;;;;4747364;30;20040;-85
2022/02/06 11:28:40;;;;;;;3.92;1.20;;;12.10;41.10;;;;;;4735434;30;20345;-84
2022/02/06 11:31:06;;;;;;;1.98;1.13;;;12.20;42.70;;;;;;4723136;30;20045;-84
2022/02/06 11:33:33;;;;;;;1.52;1.00;;;12.50;43.20;;;;;;4731684;30;20340;-83
2022/02/06 11:36:05;;;;;;;1.95;0.85;;;12.60;40.50;;;;;;4725638;30;20040;-84
2022/02/06 11:45:00;;;;;;;5.63;1.17;;;12.50;40.20;;;;;;4760602;30;20316;-81
2022/02/06 11:47:36;;;;;;;1.95;1.10;;;12.80;39.50;;;;;;4736666;30;20064;-83
2022/02/06 11:50:09;;;;;;;4.72;1.52;;;13.00;40.40;;;;;;4744017;30;20032;-82
2022/02/06 11:52:58;;;;;;;2.78;1.35;;;13.10;40.80;;;;;;4759072;30;20037;-82
2022/02/06 11:55:33;;;;;;;4.47;1.65;;;13.30;40.70;;;;;;4741814;30;20370;-83
2022/02/06 11:58:21;;;;;;;2.47;1.02;;;13.30;40.10;;;;;;4725343;30;20025;-82
2022/02/06 12:01:07;;;;;;;4.40;1.73;;;13.30;39.10;;;;;;4748760;30;20103;-83
2022/02/06 12:03:52;;;;;;;2.47;1.40;;;13.30;39.50;;;;;;4676085;30;20041;-83
2022/02/06 12:06:20;;;;;;;7.43;1.80;;;13.40;39.80;;;;;;4684777;30;20049;-83
2022/02/06 12:08:57;;;;;;;1.25;0.85;;;13.50;39.00;;;;;;4666792;30;20057;-83
2022/02/06 12:11:24;;;;;;;2.08;0.93;;;13.50;36.70;;;;;;4690614;30;20053;-83
2022/02/06 12:14:20;;;;;;;2.25;0.70;;;13.40;36.30;;;;;;4676693;30;20156;-83
2022/02/06 12:17:07;;;;;;;1.13;0.65;;;13.40;34.80;;;;;;4688944;30;20337;-82
2022/02/06 12:19:34;;;;;;;1.63;1.15;;;13.30;34.20;;;;;;4691981;30;20029;-83
2022/02/06 12:22:37;;;;;;;1.73;0.73;;;13.30;34.60;;;;;;4693601;30;20355;-83
2022/02/06 12:25:36;;;;;;;1.58;0.80;;;13.30;34.80;;;;;;4689847;30;20435;-83
2022/02/06 12:28:11;;;;;;;1.40;1.00;;;13.50;34.20;;;;;;4699077;30;20064;-83
2022/02/06 12:30:40;;;;;;;2.10;0.65;;;13.50;34.40;;;;;;4695085;30;20044;-83
2022/02/06 12:33:42;;;;;;;1.77;0.70;;;13.60;35.00;;;;;;4679060;30;20046;-83
2022/02/06 12:39:13;;;;;;;4.53;1.42;;;13.70;34.80;;;;;;4657519;30;20045;-83
2022/02/06 12:41:44;;;;;;;4.13;1.70;;;13.80;36.30;;;;;;4648101;30;20050;-83
2022/02/06 12:44:15;;;;;;;5.38;2.17;;;13.70;37.30;;;;;;4646159;30;20046;-83
2022/02/06 12:46:41;;;;;;;3.75;1.95;;;13.60;37.60;;;;;;4661023;30;20054;-81
2022/02/06 12:49:07;;;;;;;2.77;1.73;;;13.50;38.00;;;;;;4645675;30;20043;-84
2022/02/06 12:51:37;;;;;;;3.30;1.98;;;13.40;38.50;;;;;;4631279;30;20034;-83
2022/02/06 12:54:05;;;;;;;4.13;2.13;;;13.50;38.70;;;;;;4660170;30;20042;-83
2022/02/06 12:56:33;;;;;;;3.30;2.20;;;13.40;38.80;;;;;;4673953;30;20092;-83
2022/02/06 12:59:00;;;;;;;5.05;2.40;;;13.40;39.30;;;;;;4646443;30;20292;-83
2022/02/06 13:01:40;;;;;;;4.95;2.03;;;13.40;39.60;;;;;;4644641;30;20027;-80
2022/02/06 13:04:09;;;;;;;5.35;2.15;;;13.40;39.60;;;;;;4659998;30;20045;-83
2022/02/06 13:06:37;;;;;;;3.60;1.83;;;13.30;39.50;;;;;;4674346;30;20043;-82
2022/02/06 13:09:08;;;;;;;3.28;1.98;;;13.30;39.30;;;;;;4659794;30;20245;-82
2022/02/06 13:11:49;;;;;;;3.00;1.92;;;13.20;39.70;;;;;;4645333;30;20104;-83
2022/02/06 13:14:30;;;;;;;4.60;2.38;;;13.00;39.40;;;;;;4757282;30;20056;-83
2022/02/06 13:19:36;;;;;;;4.03;2.13;;;12.90;40.30;;;;;;4742300;30;20064;-83
2022/02/06 13:24:57;;;;;;;3.38;1.67;;;12.70;40.00;;;;;;4742984;30;20063;-83
2022/02/06 13:32:58;;;;;;;6.82;3.00;;;12.30;39.30;;;;;;4708031;30;20230;-82
2022/02/06 13:35:46;;;;;;;5.28;2.35;;;12.30;39.80;;;;;;4711962;30;20045;-82
2022/02/06 13:38:17;;;;;;;8.35;3.03;;;12.40;40.10;;;;;;4699538;30;20119;-84
2022/02/06 13:40:49;;;;;;;3.70;2.10;;;12.30;39.50;;;;;;4683891;30;20388;-84
2022/02/06 13:43:22;;;;;;;6.53;2.40;;;12.40;40.20;;;;;;4697628;30;20060;-83
2022/02/06 13:45:51;;;;;;;4.70;2.25;;;12.40;40.50;;;;;;4696443;30;20065;-83
2022/02/06 13:48:20;;;;;;;4.90;2.08;;;12.50;40.70;;;;;;4694335;30;20041;-84
2022/02/06 13:50:54;;;;;;;4.40;2.30;;;12.40;40.20;;;;;;4709484;30;20348;-84
2022/02/06 13:53:23;;;;;;;10.35;3.85;;;12.30;40.60;;;;;;4699007;30;20248;-84
2022/02/06 13:56:01;;;;;;;4.45;2.20;;;12.30;41.10;;;;;;4712472;30;20052;-84
2022/02/06 13:58:28;;;;;;;7.50;2.83;;;12.30;41.20;;;;;;4694990;30;20104;-84
2022/02/06 14:01:05;;;;;;;6.55;2.20;;;12.30;41.50;;;;;;4726766;30;20033;-84
2022/02/06 14:03:44;;;;;;;7.78;3.50;;;12.30;41.40;;;;;;4711844;30;20040;-84
2022/02/06 14:06:11;;;;;;;9.15;3.53;;;12.20;41.70;;;;;;4712178;30;20040;-83
2022/02/06 14:08:39;;;;;;;;;;;12.20;41.80;;;;;;4713352;30;20106;-84
2022/02/06 14:11:16;;;;;;;7.35;3.47;;;12.10;41.60;;;;;;4730396;30;20229;-84
2022/02/06 14:13:42;;;;;;;8.30;3.85;;;12.00;42.40;;;;;;4730109;30;20344;-84
2022/02/06 14:16:11;;;;;;;8.63;3.88;;;12.00;42.50;;;;;;4730020;30;20048;-83
2022/02/06 14:18:55;;;;;;;6.40;3.60;;;11.90;42.50;;;;;;4744450;30;20029;-83
2022/02/06 14:21:20;;;;;;;8.32;4.13;;;11.90;42.60;;;;;;4729812;30;20044;-83
2022/02/06 14:24:13;;;;;;;8.73;4.05;;;11.70;43.10;;;;;;4744913;30;20043;-84
2022/02/06 14:27:00;;;;;;;9.50;5.70;;;11.70;43.20;;;;;;4680481;30;20053;-84
2022/02/06 14:29:27;;;;;;;7.28;3.45;;;11.60;43.40;;;;;;4694924;30;20030;-84
2022/02/06 14:31:53;;;;;;;9.02;3.25;;;11.50;43.10;;;;;;4678335;30;20125;-84
2022/02/06 14:34:21;;;;;;;6.95;3.70;;;11.40;43.40;;;;;;4692697;30;20042;-84
2022/02/06 14:37:14;;;;;;;5.40;3.13;;;11.40;43.90;;;;;;4680904;30;20076;-83
2022/02/06 14:40:10;;;;;;;8.95;3.60;;;11.40;44.00;;;;;;4695050;30;20030;-84
2022/02/06 14:42:57;;;;;;;8.30;3.65;;;11.30;44.00;;;;;;4651724;30;20039;-83
2022/02/06 14:45:23;;;;;;;8.27;3.70;;;11.30;44.10;;;;;;4649166;30;20053;-83
2022/02/06 14:47:49;;;;;;;6.70;3.28;;;11.20;43.70;;;;;;4621928;30;20058;-84
2022/02/06 14:50:17;;;;;;;10.52;3.92;;;11.10;44.00;;;;;;4653492;30;20046;-84
2022/02/06 14:52:44;;;;;;;6.47;3.42;;;11.10;44.40;;;;;;4657792;30;20035;-84
2022/02/06 14:55:12;;;;;;;5.78;3.20;;;11.10;44.40;;;;;;4663920;30;20039;-84
2022/02/06 14:57:38;;;;;;;5.78;3.35;;;11.00;44.80;;;;;;4634452;30;20049;-84
2022/02/06 15:00:08;;;;;;;9.35;4.20;;;11.00;44.60;;;;;;4661933;30;20424;-84
2022/02/06 15:02:34;;;;;;;9.10;4.05;;;11.00;44.60;;;;;;4637581;30;20363;-84
2022/02/06 15:05:00;;;;;;;5.90;3.10;;;11.00;44.60;;;;;;4671009;30;20104;-83
2022/02/06 15:07:28;;;;;;;5.93;3.22;;;10.90;44.70;;;;;;4697774;30;20038;-83
2022/02/06 15:09:55;;;;;;;8.80;3.13;;;10.90;44.90;;;;;;4676514;30;20033;-83
2022/02/06 15:12:21;;;;;;;8.43;3.37;;;10.90;44.80;;;;;;4673258;30;20052;-80
2022/02/06 15:14:46;;;;;;;6.38;3.53;;;10.90;45.10;;;;;;4732007;30;20051;-83
2022/02/06 15:17:18;;;;;;;7.63;3.42;;;10.90;45.30;;;;;;4713113;30;20049;-83
2022/02/06 15:19:45;;;;;;;7.13;3.63;;;10.90;45.00;;;;;;4750067;30;20040;-84
2022/02/06 15:22:11;;;;;;;;;;;10.90;45.30;;;;;;4733340;30;20025;-83
2022/02/06 15:24:37;;;;;;;8.83;4.17;;;10.80;45.30;;;;;;4722027;30;20164;-82
2022/02/06 15:27:03;;;;;;;9.02;4.45;;;10.80;45.60;;;;;;4723935;30;20048;-82
2022/02/06 15:29:29;;;;;;;10.25;5.13;;;10.80;46.00;;;;;;4740241;30;20029;-82
2022/02/06 15:31:56;;;;;;;14.48;6.28;;;10.70;46.30;;;;;;4713682;30;20055;-83
2022/02/06 15:34:22;;;;;;;10.82;5.70;;;10.70;46.30;;;;;;4724852;30;20041;-83
2022/02/06 15:36:53;;;;;;;9.07;4.95;;;10.70;46.80;;;;;;4709794;30;20044;-83
2022/02/06 15:39:24;;;;;;;10.95;5.45;;;10.60;46.90;;;;;;4721943;30;20036;-83
2022/02/06 15:41:54;;;;;;;8.90;4.45;;;10.50;47.30;;;;;;4733483;30;20074;-83
2022/02/06 15:44:20;;;;;;;8.35;4.60;;;10.50;47.70;;;;;;4730482;30;20036;-83
2022/02/06 15:46:46;;;;;;;9.00;4.25;;;10.30;48.20;;;;;;4724973;30;20068;-83
2022/02/06 15:49:12;;;;;;;12.98;4.90;;;10.30;48.20;;;;;;4723301;30;20048;-82
2022/02/06 15:51:38;;;;;;;9.48;4.45;;;10.30;48.80;;;;;;4724671;30;20040;-83
2022/02/06 15:54:04;;;;;;;9.73;5.38;;;10.30;48.60;;;;;;4722416;30;20037;-83
2022/02/06 15:56:30;;;;;;;10.40;4.95;;;10.20;48.90;;;;;;4723887;30;20087;-83
2022/02/06 15:58:56;;;;;;;11.98;4.88;;;10.10;48.80;;;;;;4738735;30;20036;-83
2022/02/06 16:01:22;;;;;;;8.52;4.40;;;10.10;48.90;;;;;;4724875;30;20112;-83
2022/02/06 16:03:47;;;;;;;9.75;4.95;;;10.10;49.00;;;;;;4721972;30;20036;-83
2022/02/06 16:06:13;;;;;;;12.95;4.05;;;10.10;49.10;;;;;;4712745;30;20236;-83
2022/02/06 16:08:39;;;;;;;9.05;4.30;;;10.10;49.20;;;;;;4727054;30;20033;-83
2022/02/06 16:11:34;;;;;;;7.93;4.15;;;10.10;49.20;;;;;;4727051;30;20053;-83
2022/02/06 16:14:05;;;;;;;9.32;4.25;;;10.10;49.30;;;;;;4689735;30;20112;-83
2022/02/06 16:16:32;;;;;;;7.63;4.40;;;10.10;49.30;;;;;;4660760;30;20043;-84
2022/02/06 16:22:53;;;;;;;7.65;4.35;;;10.00;49.30;;;;;;4593597;31;20420;-84
2022/02/06 16:25:42;;;;;;;7.75;4.10;;;10.00;49.10;;;;;;4566591;31;20064;-84
2022/02/06 16:28:14;;;;;;;7.68;4.93;;;10.00;49.20;;;;;;4567586;31;20101;-83
2022/02/06 16:30:43;;;;;;;11.82;5.18;;;9.90;49.40;;;;;;4594457;31;20323;-84
2022/02/06 16:33:34;;;;;;;9.52;4.97;;;9.90;49.60;;;;;;4543708;31;20060;-83
2022/02/06 16:36:03;;;;;;;11.45;5.32;;;9.90;50.00;;;;;;4528495;31;20074;-83
2022/02/06 16:38:30;;;;;;;12.40;4.50;;;9.80;48.90;;;;;;4511862;31;20292;-83
2022/02/06 16:41:03;;;;;;;7.25;3.60;;;9.90;47.00;;;;;;4513800;31;20050;-83
2022/02/06 16:43:39;;;;;;;11.63;4.30;;;10.10;46.20;;;;;;4529696;31;20050;-83
2022/02/06 16:46:13;;;;;;;5.53;3.25;;;10.40;45.70;;;;;;4519589;31;20150;-83
2022/02/06 16:48:48;;;;;;;3.78;1.63;;;10.60;44.80;;;;;;4507055;31;20082;-83
2022/02/06 16:51:21;;;;;;;1.90;0.80;;;10.80;42.90;;;;;;4531470;31;20058;-83
2022/02/06 16:54:07;;;;;;;1.83;1.15;;;11.00;42.50;;;;;;4544324;31;20054;-83
2022/02/06 16:56:33;;;;;;;1.60;0.80;;;11.20;41.80;;;;;;4552337;31;20060;-83
2022/02/06 16:58:59;;;;;;;1.90;1.10;;;11.40;41.70;;;;;;4573338;31;20047;-83
2022/02/06 17:01:25;;;;;;;7.80;3.08;;;11.50;41.30;;;;;;4620938;31;20055;-83
2022/02/06 17:03:51;;;;;;;4.90;1.90;;;11.60;40.80;;;;;;4594134;31;20076;-83
2022/02/06 17:06:17;;;;;;;3.92;1.30;;;11.80;40.20;;;;;;4596909;31;20055;-84
2022/02/06 17:08:43;;;;;;;5.60;2.22;;;11.90;40.30;;;;;;4648112;30;20477;-83
2022/02/06 17:11:09;;;;;;;6.03;1.27;;;12.00;40.70;;;;;;4688131;30;20045;-83
2022/02/06 17:13:36;;;;;;;2.95;1.30;;;12.00;40.10;;;;;;4722720;30;20214;-83
2022/02/06 17:16:02;;;;;;;1.98;1.10;;;12.10;40.20;;;;;;4733739;30;20040;-83
2022/02/06 17:18:39;;;;;;;2.80;1.00;;;12.20;40.00;;;;;;4738655;30;20106;-83
2022/02/06 17:21:07;;;;;;;;;;;12.20;39.80;;;;;;4722007;30;20279;-83
2022/02/06 17:24:05;;;;;;;5.43;1.02;;;12.30;39.40;;;;;;4730112;30;19937;-83
2022/02/06 17:27:31;;;;;;;;;;;;;;;;;;;;;
2022/02/06 17:30:06;;;;;;;4.53;1.65;;;12.40;39.30;;;;;;4649563;30;20259;-83
2022/02/06 17:32:32;;;;;;;2.45;1.50;;;12.30;39.60;;;;;;4630604;30;20042;-83
2022/02/06 17:34:57;;;;;;;4.28;1.00;;;12.30;39.70;;;;;;4643443;30;20110;-83
2022/02/06 17:37:23;;;;;;;3.05;1.08;;;12.30;39.70;;;;;;4630765;30;20109;-82
2022/02/06 17:39:52;;;;;;;2.33;1.20;;;12.40;39.80;;;;;;4642171;30;20252;-83
2022/02/06 17:42:19;;;;;;;1.67;0.82;;;12.40;39.80;;;;;;4630319;30;20073;-82
2022/02/06 17:44:45;;;;;;;1.98;1.20;;;12.40;39.90;;;;;;4642453;30;20254;-83
2022/02/06 17:47:13;;;;;;;6.95;1.20;;;12.40;39.90;;;;;;4642258;30;20066;-82
2022/02/06 17:49:39;;;;;;;1.63;1.13;;;12.40;40.10;;;;;;4628974;30;20106;-82
2022/02/06 17:52:09;;;;;;;1.23;0.68;;;12.40;39.90;;;;;;4651811;30;20137;-82
2022/02/06 17:54:39;;;;;;;2.70;1.10;;;12.40;40.10;;;;;;4629091;30;20039;-82
2022/02/06 17:57:06;;;;;;;3.35;1.90;;;12.40;40.10;;;;;;4649693;30;20038;-83
2022/02/06 18:03:19;;;;;;;3.88;1.88;;;12.40;40.50;;;;;;4653322;30;20358;-83
2022/02/06 18:05:56;;;;;;;5.32;2.83;;;12.40;40.50;;;;;;4648194;30;20042;-83
2022/02/06 18:08:22;;;;;;;4.15;2.15;;;12.40;40.50;;;;;;4674632;30;20061;-82
2022/02/06 18:10:58;;;;;;;1.58;1.08;;;12.40;40.70;;;;;;4674174;30;20101;-82
2022/02/06 18:14:11;;;;;;;2.33;1.23;;;12.30;40.30;;;;;;4665599;30;20050;-81
2022/02/06 18:16:36;;;;;;;2.13;1.40;;;12.40;40.20;;;;;;4690150;30;20062;-82
2022/02/06 18:19:03;;;;;;;5.65;2.13;;;12.30;40.20;;;;;;4690302;30;20061;-82
2022/02/06 18:21:58;;;;;;;3.65;1.23;;;12.40;40.30;;;;;;4674770;30;20127;-82
2022/02/06 18:24:49;;;;;;;3.67;1.70;;;12.40;40.70;;;;;;4664846;30;20069;-82
2022/02/06 18:27:46;;;;;;;2.47;1.20;;;12.30;40.70;;;;;;4629304;30;20393;-82